Time;durP1;ratioP1;P1;durP2;ratioP2;P2;SDS_P1;SDS_P2;PMS_P1;PMS_P2;Temp;Humidity;BMP_temperature;BMP_pressure;BME280_temperature;BME280_humidity;BME280_pressure;Samples;Min_cycle;Max_cycle;Signal;HPM_P1;HPM_P2
2022/08/04 00:02:23;;;;;;;4.97;2.33;;;29.50;47.80;30.50;100477.00;;;;5027435;28;20187;-41
2022/08/04 00:05:02;;;;;;;7.38;2.70;;;29.50;47.80;30.50;100451.00;;;;5027327;28;20191;-40
2022/08/04 00:07:51;;;;;;;3.85;2.40;;;29.40;47.80;30.50;100463.00;;;;5027582;28;20178;-41
2022/08/04 00:10:17;;;;;;;3.83;2.25;;;29.40;48.00;30.50;100469.00;;;;5012872;28;20166;-40
2022/08/04 00:12:46;;;;;;;4.75;2.45;;;29.40;48.10;30.50;100459.00;;;;5028104;28;20171;-40
2022/08/04 00:15:15;;;;;;;4.97;2.67;;;29.40;48.00;30.50;100461.00;;;;5010928;28;20226;-40
2022/08/04 00:17:49;;;;;;;4.22;2.10;;;29.30;48.00;30.40;100460.00;;;;5028401;28;20234;-40
2022/08/04 00:20:18;;;;;;;3.50;2.20;;;29.40;48.10;30.40;100449.00;;;;5027383;28;20159;-41
2022/08/04 00:22:45;;;;;;;3.75;2.20;;;29.30;48.10;30.40;100456.00;;;;5027455;28;20198;-41
2022/08/04 00:25:11;;;;;;;6.38;2.63;;;29.30;48.10;30.40;100457.00;;;;5033905;28;20681;-41
2022/08/04 00:27:36;;;;;;;4.65;2.55;;;29.30;48.10;30.40;100459.00;;;;5024095;28;20193;-42
2022/08/04 00:30:04;;;;;;;4.32;2.50;;;29.30;48.20;30.30;100467.00;;;;5040102;28;20193;-41
2022/08/04 00:32:29;;;;;;;3.50;2.20;;;29.30;48.30;30.30;100447.00;;;;5031305;28;20252;-42
2022/08/04 00:34:56;;;;;;;4.93;2.47;;;29.20;48.30;30.30;100460.00;;;;5010633;28;20230;-41
2022/08/04 00:37:23;;;;;;;5.55;2.70;;;29.30;48.40;30.30;100450.00;;;;5026443;28;20167;-41
2022/08/04 00:39:49;;;;;;;6.25;2.58;;;29.20;48.30;30.30;100451.00;;;;5028304;28;20197;-40
2022/08/04 00:42:33;;;;;;;5.00;2.55;;;29.20;48.30;30.30;100444.00;;;;5026813;28;20171;-40
2022/08/04 00:45:07;;;;;;;4.80;2.50;;;29.20;48.40;30.30;100453.00;;;;5028133;28;20218;-41
2022/08/04 00:48:07;;;;;;;3.40;2.20;;;29.10;48.50;30.20;100455.00;;;;5027824;28;20770;-40
2022/08/04 00:50:55;;;;;;;4.60;2.50;;;29.10;48.50;30.20;100448.00;;;;5025084;28;20179;-41
2022/08/04 00:53:52;;;;;;;5.55;2.50;;;29.10;48.40;30.10;100446.00;;;;5013891;28;20152;-41
2022/08/04 00:56:33;;;;;;;4.10;2.55;;;29.10;48.50;30.10;100451.00;;;;5013382;28;20545;-40
2022/08/04 00:59:21;;;;;;;3.47;2.22;;;29.00;48.50;30.10;100439.00;;;;5026381;28;20167;-40
2022/08/04 01:02:12;;;;;;;5.05;2.40;;;29.00;48.50;30.10;100445.00;;;;5026557;28;20217;-40
2022/08/04 01:05:02;;;;;;;5.72;2.35;;;29.00;48.70;30.10;100448.00;;;;5027562;28;20277;-41
2022/08/04 01:07:49;;;;;;;3.15;2.28;;;29.00;48.80;30.10;100446.00;;;;5027668;28;20163;-41
2022/08/04 01:10:36;;;;;;;4.43;2.40;;;29.00;48.80;30.10;100454.00;;;;5028744;28;20197;-41
2022/08/04 01:13:47;;;;;;;3.58;2.30;;;29.00;48.80;30.10;100453.00;;;;5028090;28;20163;-41
2022/08/04 01:16:16;;;;;;;3.28;2.20;;;29.10;48.80;30.10;100453.00;;;;5013783;28;20191;-40
2022/08/04 01:19:36;;;;;;;5.63;2.20;;;29.00;49.00;30.10;100451.00;;;;5027416;28;20633;-41
2022/08/04 01:22:33;;;;;;;4.85;2.55;;;29.00;49.30;30.00;100450.00;;;;5026635;28;20715;-40
2022/08/04 01:25:16;;;;;;;3.30;2.10;;;29.00;49.40;30.00;100437.00;;;;5027269;28;20754;-41
2022/08/04 01:28:04;;;;;;;4.65;2.20;;;29.10;49.50;30.00;100439.00;;;;5027069;28;20171;-41
2022/08/04 01:30:29;;;;;;;3.58;2.20;;;29.00;49.50;30.00;100432.00;;;;5027334;28;20273;-41
2022/08/04 01:33:03;;;;;;;4.00;2.38;;;29.10;49.80;30.10;100432.00;;;;5027346;28;20258;-40
2022/08/04 01:35:47;;;;;;;2.80;2.28;;;29.00;49.60;30.10;100439.00;;;;5027200;28;20183;-41
2022/08/04 01:38:29;;;;;;;6.82;2.25;;;29.00;49.70;30.10;100428.00;;;;5026223;28;20626;-41
2022/08/04 01:40:58;;;;;;;4.32;2.47;;;29.00;49.90;30.00;100432.00;;;;5026061;28;20186;-40
2022/08/04 01:43:23;;;;;;;4.72;2.40;;;29.10;50.10;30.10;100425.00;;;;5025864;28;20752;-41
2022/08/04 01:45:58;;;;;;;4.00;2.38;;;29.10;50.20;30.10;100419.00;;;;5027017;28;20219;-40
2022/08/04 01:48:25;;;;;;;3.78;2.30;;;29.10;50.20;30.10;100418.00;;;;5025889;28;20143;-41
2022/08/04 01:51:06;;;;;;;3.17;2.30;;;29.10;50.30;30.10;100419.00;;;;5027082;28;20258;-41
2022/08/04 01:53:37;;;;;;;3.45;2.50;;;29.00;50.30;30.10;100421.00;;;;5026966;28;20159;-41
2022/08/04 01:56:05;;;;;;;3.53;2.13;;;29.10;50.90;30.10;100428.00;;;;5027935;28;20191;-41
2022/08/04 01:58:33;;;;;;;5.05;2.28;;;29.10;50.20;30.00;100429.00;;;;5029746;28;20178;-41
2022/08/04 02:01:08;;;;;;;2.63;2.33;;;29.00;50.10;30.10;100432.00;;;;5031153;28;20725;-41
2022/08/04 02:03:35;;;;;;;4.40;2.60;;;29.00;50.30;30.00;100414.00;;;;5030861;28;20714;-41
2022/08/04 02:06:57;;;;;;;5.30;2.50;;;29.00;50.50;30.10;100427.00;;;;5029768;28;20742;-40
2022/08/04 02:09:52;;;;;;;4.88;2.60;;;29.00;50.60;30.00;100438.00;;;;5025729;28;20199;-40
2022/08/04 02:12:35;;;;;;;4.57;2.47;;;29.00;50.70;30.00;100430.00;;;;5029488;28;20338;-40
2022/08/04 02:15:07;;;;;;;4.28;2.50;;;29.00;50.60;30.00;100432.00;;;;5031473;28;20187;-40
2022/08/04 02:17:49;;;;;;;4.15;2.40;;;29.00;50.70;30.00;100433.00;;;;5033048;28;20180;-40
2022/08/04 02:20:24;;;;;;;3.22;2.22;;;29.00;50.80;30.00;100432.00;;;;5031167;28;20190;-41
2022/08/04 02:23:05;;;;;;;2.63;2.22;;;29.00;50.80;30.00;100429.00;;;;5030680;28;20175;-40
2022/08/04 02:25:39;;;;;;;3.33;2.30;;;28.90;50.80;30.00;100418.00;;;;5029536;28;20275;-41
2022/08/04 02:28:20;;;;;;;4.97;2.33;;;28.90;50.80;29.90;100414.00;;;;5030212;28;20217;-41
2022/08/04 02:31:25;;;;;;;5.20;2.35;;;28.90;50.80;29.90;100418.00;;;;5029367;28;20262;-41
2022/08/04 02:34:24;;;;;;;3.45;2.30;;;28.90;50.90;29.90;100428.00;;;;5018612;28;20189;-41
2022/08/04 02:36:50;;;;;;;3.58;2.42;;;28.80;50.70;29.80;100418.00;;;;5021572;28;20183;-41
2022/08/04 02:39:20;;;;;;;4.40;2.17;;;28.80;50.70;29.80;100429.00;;;;5029851;28;20877;-40
2022/08/04 02:41:47;;;;;;;3.40;2.33;;;28.80;50.90;29.80;100425.00;;;;5029274;28;20171;-41
2022/08/04 02:44:13;;;;;;;5.35;2.60;;;28.80;51.00;29.80;100426.00;;;;5030042;28;20188;-40
2022/08/04 02:46:40;;;;;;;2.80;2.50;;;28.80;50.90;29.80;100422.00;;;;5012484;28;20807;-40
2022/08/04 02:49:08;;;;;;;3.88;2.25;;;28.80;51.00;29.80;100410.00;;;;5029773;28;20244;-40
2022/08/04 02:51:40;;;;;;;5.25;2.40;;;28.80;50.90;29.80;100420.00;;;;5030038;28;20159;-41
2022/08/04 02:54:06;;;;;;;2.70;2.40;;;28.80;51.00;29.80;100423.00;;;;5030177;28;20171;-40
2022/08/04 02:56:33;;;;;;;2.55;2.30;;;28.80;50.80;29.80;100418.00;;;;5028391;28;20197;-40
2022/08/04 02:59:01;;;;;;;4.88;2.35;;;28.80;50.70;29.80;100412.00;;;;5029898;28;20202;-41
2022/08/04 03:01:27;;;;;;;3.58;2.33;;;28.70;50.70;29.80;100410.00;;;;5028630;28;20260;-40
2022/08/04 03:04:05;;;;;;;3.85;2.40;;;28.80;50.80;29.70;100406.00;;;;5029879;28;20167;-39
2022/08/04 03:07:31;;;;;;;3.72;2.42;;;28.80;50.80;29.70;100408.00;;;;5029048;28;20747;-41
2022/08/04 03:10:36;;;;;;;3.72;2.53;;;28.70;50.80;29.70;100408.00;;;;5021883;28;20191;-41
2022/08/04 03:13:45;;;;;;;3.53;2.20;;;28.80;51.00;29.70;100407.00;;;;5016783;28;20187;-41
2022/08/04 03:16:47;;;;;;;3.28;2.40;;;28.80;51.10;29.60;100409.00;;;;5011612;28;20206;-41
2022/08/04 03:19:24;;;;;;;2.53;2.20;;;28.70;51.20;29.60;100408.00;;;;5028137;28;20809;-42
2022/08/04 03:22:14;;;;;;;3.88;2.40;;;28.70;51.20;29.60;100400.00;;;;5029601;28;20533;-41
2022/08/04 03:25:27;;;;;;;4.43;2.60;;;28.70;51.20;29.60;100403.00;;;;5029213;28;20674;-40
2022/08/04 03:28:04;;;;;;;4.63;2.42;;;28.70;51.30;29.50;100399.00;;;;5029276;28;20626;-40
2022/08/04 03:30:57;;;;;;;3.55;2.67;;;28.60;51.30;29.50;100404.00;;;;5027685;28;20159;-40
2022/08/04 03:33:44;;;;;;;3.83;2.38;;;28.70;51.60;29.50;100406.00;;;;5029094;28;20165;-40
2022/08/04 03:36:41;;;;;;;5.68;2.47;;;28.60;51.40;29.50;100406.00;;;;5030987;28;20829;-40
2022/08/04 03:39:37;;;;;;;5.35;2.33;;;28.60;51.40;29.50;100404.00;;;;5030587;28;20170;-39
2022/08/04 03:42:31;;;;;;;4.30;2.50;;;28.60;51.40;29.50;100388.00;;;;5029577;28;20169;-40
2022/08/04 03:45:42;;;;;;;3.55;2.63;;;28.60;51.40;29.50;100402.00;;;;5028585;28;20237;-41
2022/08/04 03:48:41;;;;;;;4.15;2.40;;;28.60;51.50;29.40;100390.00;;;;5017154;28;20277;-40
2022/08/04 03:54:52;;;;;;;2.75;2.50;;;28.60;51.70;29.40;100392.00;;;;5028525;28;20213;-42
2022/08/04 03:57:32;;;;;;;3.25;2.40;;;28.50;51.60;29.40;100389.00;;;;5004810;28;20783;-40
2022/08/04 04:00:20;;;;;;;3.95;2.50;;;28.50;51.60;29.40;100390.00;;;;4994583;28;20259;-41
2022/08/04 04:03:29;;;;;;;4.40;2.70;;;28.50;51.60;29.30;100388.00;;;;5014991;28;20202;-40
2022/08/04 04:06:22;;;;;;;3.33;2.60;;;28.50;51.70;29.30;100395.00;;;;5040806;28;20223;-41
2022/08/04 04:09:39;;;;;;;4.22;2.35;;;28.50;51.90;29.30;100397.00;;;;5028381;28;20578;-42
2022/08/04 04:12:14;;;;;;;5.32;2.40;;;28.40;52.40;29.20;100395.00;;;;5029318;28;20187;-40
2022/08/04 04:15:05;;;;;;;3.35;2.65;;;28.50;52.10;29.20;100397.00;;;;5040495;28;20182;-41
2022/08/04 04:18:13;;;;;;;3.92;2.60;;;28.40;52.00;29.20;100403.00;;;;5027716;28;20159;-41
2022/08/04 04:21:00;;;;;;;4.13;2.75;;;28.40;52.00;29.20;100400.00;;;;5028655;28;20735;-41
2022/08/04 04:24:02;;;;;;;2.97;2.70;;;28.40;52.00;29.20;100402.00;;;;5027165;28;20440;-41
2022/08/04 04:26:51;;;;;;;3.25;2.63;;;28.40;52.00;29.20;100400.00;;;;5042694;28;20217;-41
2022/08/04 04:30:15;;;;;;;3.60;2.90;;;28.40;52.10;29.20;100398.00;;;;5041434;28;20587;-41
2022/08/04 04:33:13;;;;;;;3.67;2.80;;;28.30;52.20;29.10;100407.00;;;;5031520;28;20606;-40
2022/08/04 04:35:57;;;;;;;4.00;2.70;;;28.30;52.60;29.10;100395.00;;;;5042382;28;20202;-41
2022/08/04 04:38:55;;;;;;;3.35;2.63;;;28.20;52.70;29.10;100402.00;;;;5027650;28;20164;-40
2022/08/04 04:41:52;;;;;;;4.20;2.78;;;28.30;53.00;29.10;100406.00;;;;5042376;28;20533;-40
2022/08/04 04:44:46;;;;;;;6.95;2.90;;;28.30;52.80;29.10;100409.00;;;;5027071;28;20174;-39
2022/08/04 04:47:56;;;;;;;4.38;2.67;;;28.20;53.00;29.00;100400.00;;;;5040521;28;20182;-40
2022/08/04 04:50:57;;;;;;;3.72;2.67;;;28.20;52.90;29.00;100405.00;;;;5042307;28;20775;-40
2022/08/04 04:53:40;;;;;;;4.00;2.67;;;28.20;52.80;29.00;100414.00;;;;5043018;28;20159;-41
2022/08/04 04:56:13;;;;;;;3.58;2.40;;;28.10;52.80;28.90;100401.00;;;;5043204;28;20198;-41
2022/08/04 04:58:39;;;;;;;3.53;2.22;;;28.20;53.00;29.00;100408.00;;;;5041985;28;20633;-41
2022/08/04 05:01:17;;;;;;;3.88;2.78;;;28.10;52.90;29.00;100407.00;;;;5042347;28;20198;-41
2022/08/04 05:04:24;;;;;;;4.32;2.50;;;28.20;52.90;28.90;100396.00;;;;5040773;28;20693;-40
2022/08/04 05:07:04;;;;;;;2.95;2.40;;;28.10;52.90;28.90;100403.00;;;;5037770;28;20613;-41
2022/08/04 05:09:50;;;;;;;4.32;2.58;;;28.10;53.20;28.90;100411.00;;;;5030218;28;20162;-40
2022/08/04 05:12:34;;;;;;;2.83;2.40;;;28.00;53.00;28.90;100404.00;;;;5040629;28;20163;-41
2022/08/04 05:15:00;;;;;;;3.75;2.92;;;28.10;53.20;28.90;100405.00;;;;5039498;28;20191;-40
2022/08/04 05:17:32;;;;;;;7.90;2.60;;;28.00;53.30;28.80;100407.00;;;;5042178;28;20536;-40
2022/08/04 05:20:05;;;;;;;4.63;2.88;;;28.00;53.30;28.80;100402.00;;;;5041715;28;20745;-40
2022/08/04 05:22:36;;;;;;;4.28;2.55;;;28.00;53.30;28.80;100412.00;;;;5042103;28;20522;-40
2022/08/04 05:25:21;;;;;;;4.63;2.95;;;28.00;53.30;28.80;100404.00;;;;5042057;28;20213;-41
2022/08/04 05:28:02;;;;;;;4.47;2.78;;;28.00;53.40;28.80;100413.00;;;;5042007;28;20232;-40
2022/08/04 05:30:28;;;;;;;3.85;2.40;;;28.00;53.40;28.80;100418.00;;;;5040977;28;20293;-40
2022/08/04 05:33:02;;;;;;;3.22;2.60;;;28.00;53.40;28.80;100422.00;;;;5041460;28;20159;-40
2022/08/04 05:35:35;;;;;;;3.47;2.70;;;28.00;53.50;28.80;100420.00;;;;5041795;28;20201;-41
2022/08/04 05:38:02;;;;;;;3.15;2.53;;;28.00;53.40;28.80;100420.00;;;;5045477;28;20630;-40
2022/08/04 05:40:27;;;;;;;4.05;2.63;;;28.00;53.50;28.80;100415.00;;;;5045175;28;20270;-40
2022/08/04 05:42:53;;;;;;;2.67;2.47;;;27.90;53.50;28.80;100413.00;;;;5042540;28;20697;-40
2022/08/04 05:45:19;;;;;;;3.88;2.60;;;27.90;53.60;28.70;100406.00;;;;5042031;28;20207;-40
2022/08/04 05:47:45;;;;;;;3.85;2.67;;;27.90;53.90;28.70;100408.00;;;;5025280;28;20194;-40
2022/08/04 05:50:10;;;;;;;3.10;2.67;;;27.90;53.90;28.70;100406.00;;;;5042387;28;20175;-40
2022/08/04 05:52:36;;;;;;;3.45;2.60;;;28.00;53.60;28.70;100409.00;;;;5041813;28;20670;-41
2022/08/04 05:55:02;;;;;;;3.25;2.95;;;28.00;54.10;28.70;100416.00;;;;5042148;28;20194;-41
2022/08/04 05:57:28;;;;;;;3.03;2.70;;;27.90;54.30;28.70;100421.00;;;;5026541;28;20245;-40
2022/08/04 05:59:54;;;;;;;3.05;2.50;;;27.90;54.20;28.70;100413.00;;;;5041873;28;20599;-41
2022/08/04 06:02:20;;;;;;;3.83;2.60;;;27.90;54.30;28.70;100420.00;;;;5041939;28;20167;-40
2022/08/04 06:04:50;;;;;;;3.35;2.60;;;27.90;54.20;28.70;100421.00;;;;5026640;28;20217;-40
2022/08/04 06:07:15;;;;;;;3.20;2.80;;;27.90;54.20;28.70;100413.00;;;;5042328;28;20198;-41
2022/08/04 06:09:41;;;;;;;4.55;3.00;;;27.80;54.10;28.70;100418.00;;;;5042246;28;20749;-41
2022/08/04 06:12:13;;;;;;;4.03;2.80;;;27.80;54.20;28.60;100399.00;;;;5042351;28;20233;-41
2022/08/04 06:14:41;;;;;;;4.43;2.72;;;27.80;54.20;28.60;100412.00;;;;5041149;28;20194;-41
2022/08/04 06:17:08;;;;;;;3.35;2.70;;;27.80;53.80;28.60;100408.00;;;;5041351;28;20186;-41
2022/08/04 06:19:35;;;;;;;4.10;2.85;;;27.80;53.70;28.60;100408.00;;;;5041926;28;20183;-40
2022/08/04 06:22:03;;;;;;;4.55;2.75;;;27.80;53.80;28.60;100418.00;;;;5041773;28;20171;-41
2022/08/04 06:24:28;;;;;;;4.28;3.00;;;27.90;53.80;28.60;100419.00;;;;5041315;28;20163;-40
2022/08/04 06:26:54;;;;;;;2.60;2.40;;;27.90;53.80;28.60;100416.00;;;;5041571;28;20206;-40
2022/08/04 06:29:34;;;;;;;2.75;2.53;;;27.90;53.70;28.50;100409.00;;;;5041225;28;20681;-40
2022/08/04 06:32:01;;;;;;;4.10;2.70;;;27.90;53.70;28.50;100400.00;;;;5039806;28;20233;-40
2022/08/04 06:34:28;;;;;;;2.53;2.33;;;27.90;53.70;28.50;100416.00;;;;5041095;28;20175;-40
2022/08/04 06:36:54;;;;;;;4.10;2.92;;;27.90;53.80;28.50;100417.00;;;;5041074;28;20253;-40
2022/08/04 06:39:24;;;;;;;3.78;2.90;;;27.90;53.90;28.50;100414.00;;;;5041873;28;20694;-40
2022/08/04 06:41:50;;;;;;;5.47;2.85;;;27.90;53.90;28.50;100414.00;;;;5042758;28;20735;-40
2022/08/04 06:44:16;;;;;;;5.05;3.00;;;27.90;54.10;28.50;100419.00;;;;5044152;28;20729;-39
2022/08/04 06:46:41;;;;;;;4.53;2.92;;;27.90;54.30;28.50;100423.00;;;;5044022;28;20214;-41
2022/08/04 06:49:07;;;;;;;3.38;2.70;;;27.90;54.20;28.50;100422.00;;;;5042924;28;20224;-41
2022/08/04 06:51:35;;;;;;;3.83;2.63;;;27.90;54.10;28.50;100424.00;;;;4957209;28;20184;-40
2022/08/04 06:54:01;;;;;;;3.75;2.80;;;27.80;54.00;28.50;100419.00;;;;5007468;28;20171;-40
2022/08/04 06:56:28;;;;;;;4.45;3.00;;;27.80;54.20;28.50;100408.00;;;;5007070;28;20799;-40
2022/08/04 06:58:53;;;;;;;3.20;2.92;;;27.80;54.30;28.50;100414.00;;;;4997207;28;20190;-40
2022/08/04 07:01:19;;;;;;;3.50;3.20;;;27.80;54.20;28.50;100416.00;;;;5024012;28;20163;-40
2022/08/04 07:03:45;;;;;;;3.60;2.85;;;27.80;54.50;28.50;100418.00;;;;5007568;28;20227;-40
2022/08/04 07:06:11;;;;;;;4.82;3.15;;;27.80;54.40;28.50;100411.00;;;;5007344;28;20291;-40
2022/08/04 07:08:37;;;;;;;4.07;2.80;;;27.70;54.20;28.40;100410.00;;;;5020878;28;20199;-40
2022/08/04 07:11:04;;;;;;;4.30;2.80;;;27.80;54.20;28.50;100415.00;;;;5028426;28;20168;-41
2022/08/04 07:13:30;;;;;;;3.83;3.10;;;27.80;54.20;28.50;100416.00;;;;5016957;28;20214;-40
2022/08/04 07:15:56;;;;;;;4.72;2.88;;;27.80;54.20;28.50;100395.00;;;;5020372;28;20225;-40
2022/08/04 07:18:22;;;;;;;3.55;2.92;;;27.80;54.10;28.50;100405.00;;;;5009309;28;20182;-41
2022/08/04 07:20:48;;;;;;;3.58;3.22;;;27.80;53.80;28.50;100411.00;;;;5008322;28;20171;-40
2022/08/04 07:23:20;;;;;;;3.15;2.92;;;27.80;53.70;28.50;100410.00;;;;5006825;28;20227;-42
2022/08/04 07:25:51;;;;;;;4.07;3.10;;;27.80;53.60;28.50;100402.00;;;;5008508;28;20206;-42
2022/08/04 07:28:17;;;;;;;3.28;2.80;;;27.80;53.60;28.50;100413.00;;;;5008484;28;20266;-41
2022/08/04 07:30:43;;;;;;;4.18;3.03;;;27.90;53.80;28.50;100408.00;;;;5007522;28;20179;-43
2022/08/04 07:33:09;;;;;;;5.13;3.00;;;27.90;53.80;28.50;100407.00;;;;5007383;28;20191;-42
2022/08/04 07:35:36;;;;;;;4.55;3.08;;;27.90;53.80;28.50;100419.00;;;;5007331;28;20199;-42
2022/08/04 07:38:02;;;;;;;3.30;3.00;;;27.90;53.80;28.50;100415.00;;;;5007372;28;20187;-42
2022/08/04 07:40:29;;;;;;;3.95;2.70;;;27.90;53.70;28.60;100422.00;;;;5007504;28;20175;-41
2022/08/04 07:42:55;;;;;;;3.03;2.70;;;27.90;53.90;28.60;100399.00;;;;5007669;28;20175;-42
2022/08/04 07:45:21;;;;;;;4.63;2.85;;;27.90;53.80;28.60;100409.00;;;;5006495;28;20214;-42
2022/08/04 07:47:47;;;;;;;4.72;2.90;;;27.90;54.50;28.60;100408.00;;;;5027622;28;20661;-41
2022/08/04 07:50:13;;;;;;;4.03;2.80;;;27.90;54.20;28.30;100439.00;;;;4976012;28;21867;-42
2022/08/04 07:52:39;;;;;;;4.70;2.80;;;28.00;54.30;28.60;100416.00;;;;5003691;28;20708;-42
2022/08/04 07:55:05;;;;;;;3.38;2.97;;;28.00;54.40;28.70;100420.00;;;;5024559;28;20195;-42
2022/08/04 07:57:30;;;;;;;4.88;2.88;;;28.00;54.30;28.60;100415.00;;;;5006778;28;20164;-42
2022/08/04 07:59:56;;;;;;;2.90;2.70;;;28.00;54.80;28.70;100416.00;;;;5008242;28;20179;-41
2022/08/04 08:02:22;;;;;;;3.08;2.70;;;28.00;54.70;28.80;100409.00;;;;5023450;28;20175;-42
2022/08/04 08:04:48;;;;;;;5.18;2.90;;;28.00;54.60;28.70;100409.00;;;;5023152;28;20733;-42
2022/08/04 08:07:14;;;;;;;2.90;2.70;;;28.00;54.60;28.70;100415.00;;;;5023040;28;20196;-43
2022/08/04 08:09:39;;;;;;;3.00;2.72;;;28.00;54.80;28.80;100410.00;;;;5023164;28;20234;-43
2022/08/04 08:12:07;;;;;;;4.63;2.90;;;28.00;54.80;28.70;100418.00;;;;5023092;28;20634;-42
2022/08/04 08:14:34;;;;;;;3.10;2.80;;;28.10;54.90;28.80;100420.00;;;;5007834;28;20172;-41
2022/08/04 08:17:01;;;;;;;3.08;2.78;;;28.00;54.70;28.80;100412.00;;;;5022608;28;20176;-43
2022/08/04 08:19:28;;;;;;;2.60;2.40;;;28.10;55.00;28.80;100411.00;;;;5007830;28;20728;-41
2022/08/04 08:21:54;;;;;;;5.43;2.90;;;28.10;55.00;28.80;100413.00;;;;5008247;28;20174;-42
2022/08/04 08:24:20;;;;;;;2.85;2.63;;;28.00;55.00;28.80;100401.00;;;;5023803;28;20294;-41
2022/08/04 08:26:46;;;;;;;2.95;2.63;;;28.00;54.90;28.80;100419.00;;;;5033992;28;20640;-43
2022/08/04 08:29:12;;;;;;;2.95;2.72;;;28.10;55.10;28.80;100419.00;;;;5028165;28;20783;-43
2022/08/04 08:31:38;;;;;;;3.10;2.80;;;28.10;55.00;28.90;100412.00;;;;5042978;28;20605;-43
2022/08/04 08:34:04;;;;;;;3.08;2.78;;;28.10;55.10;28.90;100417.00;;;;5026835;28;20179;-41
2022/08/04 08:37:08;;;;;;;2.72;2.53;;;28.10;55.20;29.00;100418.00;;;;5026030;28;20257;-43
2022/08/04 08:39:40;;;;;;;2.83;2.63;;;28.10;55.30;29.10;100413.00;;;;5016889;28;20210;-41
2022/08/04 08:42:25;;;;;;;3.00;2.80;;;28.10;55.40;29.10;100406.00;;;;5044173;28;20167;-42
2022/08/04 08:45:47;;;;;;;2.90;2.60;;;28.10;55.40;29.10;100412.00;;;;5043843;28;20214;-42
2022/08/04 08:48:43;;;;;;;2.80;2.60;;;28.00;55.50;29.10;100407.00;;;;5028085;28;20170;-42
2022/08/04 08:51:42;;;;;;;2.70;2.50;;;28.10;55.50;29.10;100410.00;;;;5027798;28;20156;-41
2022/08/04 08:54:28;;;;;;;3.30;2.63;;;28.10;55.70;29.10;100409.00;;;;5027624;28;20479;-43
2022/08/04 08:57:16;;;;;;;3.20;2.60;;;28.10;55.70;29.10;100403.00;;;;5042901;28;20170;-42
2022/08/04 09:00:15;;;;;;;2.88;2.60;;;28.10;55.70;29.10;100395.00;;;;5053409;28;20159;-41
2022/08/04 09:02:50;;;;;;;3.10;2.80;;;28.10;55.80;29.10;100396.00;;;;5043422;28;20680;-42
2022/08/04 09:05:29;;;;;;;3.05;2.80;;;28.20;55.90;29.10;100394.00;;;;5032042;28;20182;-43
2022/08/04 09:08:04;;;;;;;4.50;2.70;;;28.20;56.00;29.20;100392.00;;;;5027755;28;20238;-42
2022/08/04 09:10:35;;;;;;;2.80;2.60;;;28.20;56.00;29.20;100396.00;;;;5027254;28;20151;-42
2022/08/04 09:13:33;;;;;;;2.58;2.38;;;28.20;56.70;29.20;100394.00;;;;5027137;28;20166;-41
2022/08/04 09:16:43;;;;;;;2.50;2.30;;;28.20;56.20;29.20;100383.00;;;;5042562;28;20329;-42
2022/08/04 09:19:34;;;;;;;2.78;2.58;;;28.20;56.30;29.20;100391.00;;;;4995784;28;20183;-41
2022/08/04 09:22:14;;;;;;;2.70;2.50;;;28.30;56.40;29.20;100400.00;;;;4815845;28;22851;-41
2022/08/04 09:25:06;;;;;;;3.60;2.60;;;28.30;56.40;29.20;100402.00;;;;5006387;28;20761;-43
2022/08/04 09:27:56;;;;;;;2.70;2.50;;;28.30;56.40;29.20;100395.00;;;;5024548;28;20186;-41
2022/08/04 09:30:51;;;;;;;2.60;2.40;;;28.30;56.40;29.20;100394.00;;;;5006620;28;20186;-42
2022/08/04 09:33:37;;;;;;;2.78;2.58;;;28.30;56.40;29.20;100397.00;;;;5006017;28;20175;-42
2022/08/04 09:36:28;;;;;;;2.85;2.42;;;28.30;56.50;29.20;100398.00;;;;5006215;28;21011;-42
2022/08/04 09:39:23;;;;;;;2.63;2.42;;;28.30;56.60;29.20;100401.00;;;;5012692;28;20175;-42
2022/08/04 09:42:23;;;;;;;2.60;2.40;;;28.40;56.70;29.20;100405.00;;;;5016813;28;20316;-42
2022/08/04 09:45:25;;;;;;;2.83;2.40;;;28.40;56.70;29.30;100407.00;;;;5004294;28;20219;-43
2022/08/04 09:48:03;;;;;;;2.70;2.50;;;28.40;57.40;29.30;100397.00;;;;5016620;28;20183;-43
2022/08/04 09:50:37;;;;;;;2.60;2.40;;;28.50;56.90;29.30;100400.00;;;;5022893;28;20174;-43
2022/08/04 09:53:40;;;;;;;3.55;2.50;;;28.40;56.80;29.30;100402.00;;;;5023832;28;20301;-42
2022/08/04 09:56:27;;;;;;;2.70;2.50;;;28.50;56.90;29.30;100400.00;;;;5026856;28;20190;-42
2022/08/04 09:59:27;;;;;;;2.60;2.40;;;28.50;56.90;29.40;100411.00;;;;5041928;28;20151;-42
2022/08/04 10:01:58;;;;;;;2.67;2.47;;;28.60;57.10;29.40;100412.00;;;;5042085;28;20168;-42
2022/08/04 10:04:24;;;;;;;2.70;2.50;;;28.50;57.10;29.40;100395.00;;;;5041420;28;20171;-42
2022/08/04 10:07:17;;;;;;;2.80;2.60;;;28.50;57.10;29.50;100409.00;;;;5041933;28;20566;-43
2022/08/04 10:10:15;;;;;;;2.35;2.20;;;28.60;57.10;29.50;100404.00;;;;5042186;28;20174;-42
2022/08/04 10:13:18;;;;;;;2.97;2.70;;;28.60;57.10;29.50;100404.00;;;;5023402;28;20245;-43
2022/08/04 10:16:14;;;;;;;2.70;2.50;;;28.60;57.80;29.50;100404.00;;;;5008687;28;20365;-41
2022/08/04 10:19:06;;;;;;;2.63;2.42;;;28.70;57.20;29.50;100407.00;;;;5033228;28;20167;-41
2022/08/04 10:21:50;;;;;;;2.70;2.50;;;28.70;57.30;29.60;100408.00;;;;5031750;28;20719;-42
2022/08/04 10:25:02;;;;;;;2.78;2.58;;;28.70;57.30;29.60;100405.00;;;;5043733;28;20155;-42
2022/08/04 10:27:54;;;;;;;2.50;2.30;;;28.70;57.20;29.60;100412.00;;;;5044375;28;20593;-42
2022/08/04 10:30:20;;;;;;;2.70;2.50;;;28.80;57.40;29.60;100413.00;;;;5044620;28;20159;-43
2022/08/04 10:33:01;;;;;;;2.75;2.50;;;28.80;57.30;29.60;100416.00;;;;5045459;28;20530;-42
2022/08/04 10:35:34;;;;;;;2.80;2.40;;;28.80;57.30;29.70;100410.00;;;;5044758;28;20634;-42
2022/08/04 10:38:06;;;;;;;2.50;2.30;;;28.90;57.30;29.70;100416.00;;;;5044443;28;20664;-42
2022/08/04 10:40:45;;;;;;;3.05;2.60;;;28.90;57.40;29.70;100413.00;;;;5030212;28;20189;-42
2022/08/04 10:43:32;;;;;;;2.80;2.40;;;28.90;57.40;29.70;100415.00;;;;5045046;28;20194;-42
2022/08/04 10:46:25;;;;;;;2.60;2.40;;;28.90;57.40;29.80;100421.00;;;;5029591;28;20591;-42
2022/08/04 10:49:17;;;;;;;3.03;2.45;;;28.90;57.50;29.80;100417.00;;;;5007129;28;20193;-41
2022/08/04 10:52:00;;;;;;;2.40;2.30;;;29.00;57.50;29.80;100422.00;;;;5022698;28;20182;-42
2022/08/04 10:54:52;;;;;;;2.75;2.55;;;29.00;57.50;29.80;100412.00;;;;5043232;28;20551;-42
2022/08/04 10:57:43;;;;;;;2.60;2.40;;;29.00;57.50;29.90;100410.00;;;;5044542;28;20598;-42
2022/08/04 11:00:18;;;;;;;2.40;2.20;;;29.10;57.60;29.90;100417.00;;;;5027339;28;20270;-42
2022/08/04 11:03:22;;;;;;;3.30;2.30;;;29.10;57.60;29.90;100413.00;;;;5042428;28;20241;-43
2022/08/04 11:05:58;;;;;;;2.80;2.60;;;29.10;57.60;30.00;100422.00;;;;5040794;28;20382;-43
2022/08/04 11:08:35;;;;;;;2.80;2.47;;;29.10;57.50;30.00;100423.00;;;;4854557;28;20195;-43
2022/08/04 11:11:19;;;;;;;3.40;2.33;;;29.20;57.60;30.00;100414.00;;;;5043015;28;20166;-43
2022/08/04 11:14:10;;;;;;;2.50;2.30;;;29.20;57.60;30.10;100413.00;;;;5012827;28;20156;-42
2022/08/04 11:16:54;;;;;;;3.15;2.47;;;29.30;57.60;30.10;100421.00;;;;4997509;28;20191;-42
2022/08/04 11:20:01;;;;;;;2.42;2.22;;;29.30;57.80;30.10;100424.00;;;;4994121;28;20166;-43
2022/08/04 11:22:27;;;;;;;2.67;2.40;;;29.30;57.60;30.20;100422.00;;;;4996375;28;20229;-43
2022/08/04 11:25:28;;;;;;;2.40;2.20;;;29.30;57.60;30.20;100426.00;;;;5025133;28;20725;-41
2022/08/04 11:28:21;;;;;;;3.10;2.20;;;29.30;57.60;30.20;100424.00;;;;5008830;28;20314;-42
2022/08/04 11:31:09;;;;;;;2.40;2.20;;;29.40;57.60;30.30;100414.00;;;;5024632;28;20152;-42
2022/08/04 11:34:04;;;;;;;2.65;2.30;;;29.40;57.60;30.30;100436.00;;;;5005776;28;20163;-43
2022/08/04 11:36:35;;;;;;;2.83;2.40;;;29.40;57.60;30.30;100432.00;;;;5009560;28;20198;-42
2022/08/04 11:39:11;;;;;;;2.45;2.20;;;29.40;57.60;30.30;100439.00;;;;5024824;28;20590;-42
2022/08/04 11:42:04;;;;;;;2.10;2.00;;;29.40;57.50;30.40;100428.00;;;;5028042;28;20160;-41
2022/08/04 11:44:47;;;;;;;2.50;2.30;;;29.40;57.40;30.40;100445.00;;;;5029098;28;20262;-42
2022/08/04 11:47:29;;;;;;;2.30;2.10;;;29.50;57.60;30.40;100447.00;;;;5029060;28;20234;-41